Time;durP1;ratioP1;P1;durP2;ratioP2;P2;SDS_P1;SDS_P2;PMS_P1;PMS_P2;Temp;Humidity;BMP_temperature;BMP_pressure;BME280_temperature;BME280_humidity;BME280_pressure;Samples;Min_cycle;Max_cycle;Signal;HPM_P1;HPM_P2
2023/04/21 00:01:13;;;;;;;;;;;17.20;47.00;;;;;;5050398;28;19928;-66
2023/04/21 00:03:40;;;;;;;;;;;17.20;47.00;;;;;;5050417;28;19927;-66
2023/04/21 00:06:06;;;;;;;;;;;17.20;47.00;;;;;;5051696;28;20014;-70
2023/04/21 00:08:31;;;;;;;;;;;17.20;47.20;;;;;;5051406;28;20403;-66
2023/04/21 00:10:57;;;;;;;;;;;17.20;47.20;;;;;;5050371;28;20015;-66
2023/04/21 00:13:23;;;;;;;;;;;17.20;47.30;;;;;;5051537;28;19944;-66
2023/04/21 00:15:48;;;;;;;;;;;17.20;47.20;;;;;;5051589;28;19928;-66
2023/04/21 00:18:14;;;;;;;;;;;17.20;47.30;;;;;;5053839;28;19921;-70
2023/04/21 00:20:40;;;;;;;;;;;17.20;47.30;;;;;;5055279;28;19928;-66
2023/04/21 00:23:05;;;;;;;;;;;17.20;47.30;;;;;;5053890;28;19925;-71
2023/04/21 00:25:31;;;;;;;;;;;17.20;47.40;;;;;;5054100;28;20276;-70
2023/04/21 00:27:56;;;;;;;;;;;17.20;47.50;;;;;;5053798;28;20019;-66
2023/04/21 00:30:22;;;;;;;;;;;17.20;47.40;;;;;;5053633;28;19921;-69
2023/04/21 00:32:47;;;;;;;;;;;17.10;47.40;;;;;;5055175;28;20140;-70
2023/04/21 00:35:13;;;;;;;;;;;17.10;47.50;;;;;;5055004;28;19946;-66
2023/04/21 00:37:40;;;;;;;;;;;17.10;47.60;;;;;;5054955;28;19920;-66
2023/04/21 00:40:07;;;;;;;;;;;17.10;47.60;;;;;;5054932;28;19925;-66
2023/04/21 00:42:33;;;;;;;;;;;17.10;47.60;;;;;;5053531;28;19928;-66
2023/04/21 00:44:58;;;;;;;;;;;17.10;47.60;;;;;;5053514;28;19921;-66
2023/04/21 00:47:24;;;;;;;;;;;17.10;47.70;;;;;;5053465;28;20002;-66
2023/04/21 00:49:50;;;;;;;;;;;17.10;47.80;;;;;;5053460;28;19920;-66
2023/04/21 00:52:16;;;;;;;;;;;17.10;47.80;;;;;;5053673;28;20031;-66
2023/04/21 00:54:42;;;;;;;;;;;17.00;48.20;;;;;;5053621;28;19921;-66
2023/04/21 00:57:08;;;;;;;;;;;17.00;47.80;;;;;;5053236;28;20020;-69
2023/04/21 00:59:33;;;;;;;;;;;17.00;47.90;;;;;;5053804;28;19924;-71
2023/04/21 01:01:59;;;;;;;;;;;17.00;48.30;;;;;;5053162;28;20391;-66
2023/04/21 01:04:24;;;;;;;;;;;17.00;48.00;;;;;;5053470;28;19921;-70
2023/04/21 01:06:50;;;;;;;;;;;17.00;48.00;;;;;;5054496;28;20380;-70
2023/04/21 01:09:16;;;;;;;;;;;17.00;48.00;;;;;;5053067;28;19928;-66
2023/04/21 01:11:41;;;;;;;;;;;17.00;48.10;;;;;;5053245;28;19920;-71
2023/04/21 01:14:07;;;;;;;;;;;17.00;48.10;;;;;;5052917;28;20490;-71
2023/04/21 01:16:33;;;;;;;;;;;16.90;48.10;;;;;;5053088;28;19955;-66
2023/04/21 01:18:59;;;;;;;;;;;16.90;48.20;;;;;;5052924;28;20410;-71
2023/04/21 01:21:25;;;;;;;;;;;16.90;48.10;;;;;;5054223;28;20244;-71
2023/04/21 01:23:52;;;;;;;;;;;16.90;48.20;;;;;;5053011;28;19921;-71
2023/04/21 01:26:18;;;;;;;;;;;16.90;48.20;;;;;;5052776;28;19921;-66
2023/04/21 01:28:44;;;;;;;;;;;16.90;48.30;;;;;;5053879;28;19963;-66
2023/04/21 01:31:09;;;;;;;;;;;16.90;48.30;;;;;;5052895;28;19921;-66
2023/04/21 01:33:35;;;;;;;;;;;16.90;48.40;;;;;;5052578;28;20339;-71
2023/04/21 01:36:00;;;;;;;;;;;16.90;48.40;;;;;;5052570;28;19928;-66
2023/04/21 01:38:26;;;;;;;;;;;16.90;48.40;;;;;;5052753;28;19929;-66
2023/04/21 01:40:52;;;;;;;;;;;17.10;48.30;;;;;;5053842;28;19921;-65
2023/04/21 01:43:19;;;;;;;;;;;17.30;47.80;;;;;;5052663;28;19921;-66
2023/04/21 01:45:45;;;;;;;;;;;17.70;47.10;;;;;;5052366;28;19920;-65
2023/04/21 01:48:11;;;;;;;;;;;18.10;46.50;;;;;;5052593;28;19920;-66
2023/04/21 01:50:36;;;;;;;;;;;18.50;45.70;;;;;;5053619;28;20391;-66
2023/04/21 01:53:02;;;;;;;;;;;19.10;44.70;;;;;;5052523;28;19972;-65
2023/04/21 01:55:28;;;;;;;;;;;19.80;43.50;;;;;;5052198;28;20341;-66
2023/04/21 01:57:53;;;;;;;;;;;20.40;42.30;;;;;;5052123;28;19925;-65
2023/04/21 02:00:19;;;;;;;;;;;21.00;41.20;;;;;;5053293;28;20063;-66
2023/04/21 02:02:45;;;;;;;;;;;21.50;40.30;;;;;;5053277;28;19925;-66
2023/04/21 02:05:10;;;;;;;;;;;21.90;39.50;;;;;;5051925;28;19920;-66
2023/04/21 02:07:35;;;;;;;;;;;22.20;38.90;;;;;;5051947;28;19932;-67
2023/04/21 02:10:01;;;;;;;;;;;22.60;38.40;;;;;;5035047;28;19925;-66
2023/04/21 02:12:26;;;;;;;;;;;22.90;38.00;;;;;;5051846;28;19920;-66
2023/04/21 02:14:52;;;;;;;;;;;23.00;37.50;;;;;;5052080;28;19927;-66
2023/04/21 02:17:20;;;;;;;;;;;23.20;37.20;;;;;;5051722;28;19921;-71
2023/04/21 02:19:46;;;;;;;;;;;23.40;36.90;;;;;;5051664;28;20445;-67
2023/04/21 02:22:12;;;;;;;;;;;23.50;36.60;;;;;;5053036;28;19920;-66
2023/04/21 02:24:37;;;;;;;;;;;23.70;36.50;;;;;;5051532;28;19925;-66
2023/04/21 02:27:03;;;;;;;;;;;23.80;36.20;;;;;;5051934;28;19927;-66
2023/04/21 02:29:28;;;;;;;;;;;23.90;36.10;;;;;;5052734;28;19933;-66
2023/04/21 02:31:54;;;;;;;;;;;24.00;35.90;;;;;;5051789;28;20330;-66
2023/04/21 02:34:20;;;;;;;;;;;24.10;35.80;;;;;;5052699;28;19920;-66
2023/04/21 02:36:45;;;;;;;;;;;24.20;35.70;;;;;;5051752;28;19932;-69
2023/04/21 02:39:11;;;;;;;;;;;24.30;35.50;;;;;;5050975;28;19928;-70
2023/04/21 02:41:37;;;;;;;;;;;24.30;35.40;;;;;;5051665;28;19964;-66
2023/04/21 02:44:03;;;;;;;;;;;24.40;35.30;;;;;;5052633;28;19921;-65
2023/04/21 02:46:29;;;;;;;;;;;24.50;35.20;;;;;;5051521;28;19928;-66
2023/04/21 02:48:55;;;;;;;;;;;24.50;35.10;;;;;;5052378;28;19975;-71
2023/04/21 02:51:20;;;;;;;;;;;24.50;35.00;;;;;;5052651;28;19948;-65
2023/04/21 02:53:46;;;;;;;;;;;24.60;35.00;;;;;;5052585;28;19921;-66
2023/04/21 02:56:12;;;;;;;;;;;24.60;34.90;;;;;;5051405;28;19920;-68
2023/04/21 02:58:37;;;;;;;;;;;24.70;34.80;;;;;;5052369;28;20015;-66
2023/04/21 03:01:03;;;;;;;;;;;24.70;34.80;;;;;;5051555;28;19928;-66
2023/04/21 03:03:29;;;;;;;;;;;24.70;34.60;;;;;;5051292;28;20062;-66
2023/04/21 03:05:56;;;;;;;;;;;24.70;34.60;;;;;;5050921;28;20003;-66
2023/04/21 03:08:21;;;;;;;;;;;24.80;34.60;;;;;;5052062;28;19928;-66
2023/04/21 03:10:46;;;;;;;;;;;24.80;34.60;;;;;;5050830;28;19925;-71
2023/04/21 03:13:12;;;;;;;;;;;24.80;34.60;;;;;;5050883;28;20308;-67
2023/04/21 03:15:37;;;;;;;;;;;24.80;34.50;;;;;;5051200;28;19974;-66
2023/04/21 03:18:03;;;;;;;;;;;24.90;34.50;;;;;;5051168;28;20372;-67
2023/04/21 03:20:29;;;;;;;;;;;24.90;34.40;;;;;;5052011;28;19921;-71
2023/04/21 03:22:54;;;;;;;;;;;24.90;34.40;;;;;;5051101;28;19924;-70
2023/04/21 03:25:20;;;;;;;;;;;24.90;34.40;;;;;;5050767;28;19920;-71
2023/04/21 03:27:45;;;;;;;;;;;24.90;34.40;;;;;;5050970;28;19925;-70
2023/04/21 03:30:11;;;;;;;;;;;24.90;34.40;;;;;;5050817;28;19925;-66
2023/04/21 03:32:37;;;;;;;;;;;24.90;34.30;;;;;;5050986;28;19964;-71
2023/04/21 03:35:02;;;;;;;;;;;24.90;34.30;;;;;;5051954;28;19928;-66
2023/04/21 03:37:28;;;;;;;;;;;24.90;34.30;;;;;;5052070;28;20058;-66
2023/04/21 03:39:53;;;;;;;;;;;24.90;34.30;;;;;;5051025;28;19921;-66
2023/04/21 03:42:19;;;;;;;;;;;24.90;34.30;;;;;;5050935;28;20017;-66
2023/04/21 03:44:44;;;;;;;;;;;24.90;34.30;;;;;;5052029;28;20277;-66
2023/04/21 03:47:10;;;;;;;;;;;24.90;34.40;;;;;;5050622;28;20274;-66
2023/04/21 03:49:35;;;;;;;;;;;24.90;34.30;;;;;;5050607;28;19929;-70
2023/04/21 03:52:01;;;;;;;;;;;25.00;34.30;;;;;;5053571;28;19946;-66
2023/04/21 03:54:26;;;;;;;;;;;25.00;34.30;;;;;;5055737;28;19990;-66
2023/04/21 03:56:52;;;;;;;;;;;25.00;34.30;;;;;;5055782;28;19990;-66
2023/04/21 03:59:17;;;;;;;;;;;25.00;34.30;;;;;;5054560;28;19928;-66
2023/04/21 04:01:43;;;;;;;;;;;24.90;34.20;;;;;;5054271;28;19927;-71
2023/04/21 04:04:08;;;;;;;;;;;24.90;34.30;;;;;;5054306;28;19925;-66
2023/04/21 04:06:34;;;;;;;;;;;24.90;34.30;;;;;;5054388;28;19964;-71
2023/04/21 04:09:03;;;;;;;;;;;24.90;34.30;;;;;;5055325;28;19924;-66
2023/04/21 04:11:29;;;;;;;;;;;24.90;34.40;;;;;;5054187;28;20164;-66
2023/04/21 04:13:54;;;;;;;;;;;24.80;34.40;;;;;;5054021;28;20144;-66
2023/04/21 04:16:20;;;;;;;;;;;24.80;34.40;;;;;;5055362;28;20185;-66
2023/04/21 04:18:45;;;;;;;;;;;24.80;34.50;;;;;;5054268;28;19924;-71
2023/04/21 04:21:11;;;;;;;;;;;24.80;34.50;;;;;;5053957;28;20411;-66
2023/04/21 04:23:36;;;;;;;;;;;24.80;34.50;;;;;;5054223;28;19921;-66
2023/04/21 04:26:04;;;;;;;;;;;24.90;34.50;;;;;;5054235;28;20288;-66
2023/04/21 04:28:30;;;;;;;;;;;24.90;34.40;;;;;;5055207;28;20012;-66
2023/04/21 04:30:55;;;;;;;;;;;25.00;34.40;;;;;;5053813;28;20050;-66
2023/04/21 04:33:21;;;;;;;;;;;25.00;34.30;;;;;;5055021;28;20292;-66
2023/04/21 04:35:46;;;;;;;;;;;25.10;34.30;;;;;;5055436;28;19928;-66
2023/04/21 04:38:13;;;;;;;;;;;25.10;34.30;;;;;;5054821;28;20279;-69
2023/04/21 04:40:39;;;;;;;;;;;25.00;34.20;;;;;;5053929;28;19921;-67
2023/04/21 04:43:04;;;;;;;;;;;25.00;34.20;;;;;;5053603;28;20372;-67
2023/04/21 04:45:31;;;;;;;;;;;25.10;34.20;;;;;;5053496;28;20019;-66
2023/04/21 04:47:57;;;;;;;;;;;25.00;34.10;;;;;;5054879;28;20330;-66
2023/04/21 04:50:23;;;;;;;;;;;25.10;34.20;;;;;;5053306;28;19920;-66
2023/04/21 04:52:50;;;;;;;;;;;25.00;34.20;;;;;;5054609;28;19971;-66
2023/04/21 04:55:15;;;;;;;;;;;25.00;34.30;;;;;;5054711;28;19921;-66
2023/04/21 04:57:41;;;;;;;;;;;25.00;34.30;;;;;;5053356;28;19928;-66
2023/04/21 05:00:10;;;;;;;;;;;25.00;34.30;;;;;;5053547;28;19952;-67
2023/04/21 05:02:36;;;;;;;;;;;24.90;34.30;;;;;;5052898;28;19924;-66
2023/04/21 05:05:02;;;;;;;;;;;24.90;34.40;;;;;;5053399;28;19921;-66
2023/04/21 05:07:27;;;;;;;;;;;24.90;34.40;;;;;;5054333;28;19966;-66
2023/04/21 05:09:53;;;;;;;;;;;24.90;34.50;;;;;;5053032;28;19924;-66
2023/04/21 05:12:19;;;;;;;;;;;24.80;34.40;;;;;;5054403;28;19971;-66
2023/04/21 05:14:44;;;;;;;;;;;24.80;34.50;;;;;;5052943;28;19927;-66
2023/04/21 05:17:10;;;;;;;;;;;24.80;34.60;;;;;;5052976;28;20023;-66
2023/04/21 05:19:36;;;;;;;;;;;24.80;34.60;;;;;;5054139;28;19948;-67
2023/04/21 05:22:01;;;;;;;;;;;24.80;34.60;;;;;;5054109;28;19927;-66
2023/04/21 05:24:27;;;;;;;;;;;24.80;34.70;;;;;;5053987;28;20003;-66
2023/04/21 05:26:53;;;;;;;;;;;24.80;34.60;;;;;;5053042;28;19925;-67
2023/04/21 05:29:18;;;;;;;;;;;24.70;34.60;;;;;;5053145;28;19929;-66
2023/04/21 05:31:44;;;;;;;;;;;24.80;34.70;;;;;;5052609;28;20380;-67
2023/04/21 05:34:09;;;;;;;;;;;24.70;34.60;;;;;;5052959;28;19921;-66
2023/04/21 05:36:35;;;;;;;;;;;24.70;34.60;;;;;;5053768;28;19952;-66
2023/04/21 05:39:00;;;;;;;;;;;24.70;34.60;;;;;;5053057;28;20364;-66
2023/04/21 05:41:26;;;;;;;;;;;24.80;34.70;;;;;;5053925;28;20411;-66
2023/04/21 05:43:51;;;;;;;;;;;24.80;34.70;;;;;;5053840;28;19921;-66
2023/04/21 05:46:16;;;;;;;;;;;24.80;34.70;;;;;;5051137;28;20015;-66
2023/04/21 05:48:42;;;;;;;;;;;24.70;34.70;;;;;;5067328;28;20368;-67
2023/04/21 05:53:48;;;;;;;;;;;24.80;34.40;;;;;;5083259;28;19916;-67
2023/04/21 05:56:14;;;;;;;;;;;24.90;34.10;;;;;;5072789;28;19927;-68
2023/04/21 05:58:40;;;;;;;;;;;25.00;34.80;;;;;;5069865;28;20450;-68
2023/04/21 06:01:06;;;;;;;;;;;25.20;33.90;;;;;;5081920;28;19969;-70
2023/04/21 06:03:31;;;;;;;;;;;25.00;33.90;;;;;;5083496;28;20345;-70
2023/04/21 06:05:58;;;;;;;;;;;24.80;34.10;;;;;;5082117;28;19921;-69
2023/04/21 06:08:24;;;;;;;;;;;24.60;34.30;;;;;;5063989;28;19949;-69
2023/04/21 06:10:49;;;;;;;;;;;24.50;34.60;;;;;;5061183;28;19932;-69
2023/04/21 06:13:15;;;;;;;;;;;24.40;34.80;;;;;;5085374;28;19964;-69
2023/04/21 06:15:40;;;;;;;;;;;24.40;34.80;;;;;;5068757;28;19920;-69
2023/04/21 06:18:06;;;;;;;;;;;24.40;34.90;;;;;;5072665;28;19927;-69
2023/04/21 06:20:31;;;;;;;;;;;24.30;34.90;;;;;;5060965;28;20220;-69
2023/04/21 06:22:57;;;;;;;;;;;24.30;35.00;;;;;;5049239;28;19921;-69
2023/04/21 06:25:22;;;;;;;;;;;24.30;35.10;;;;;;5047652;28;19928;-69
2023/04/21 06:27:48;;;;;;;;;;;24.30;35.10;;;;;;5043441;28;19978;-69
2023/04/21 06:30:13;;;;;;;;;;;24.20;35.20;;;;;;5036800;28;19925;-69
2023/04/21 06:32:39;;;;;;;;;;;24.20;35.30;;;;;;5043318;28;19925;-70
2023/04/21 06:35:04;;;;;;;;;;;24.20;35.30;;;;;;5043329;28;19928;-69
2023/04/21 06:37:30;;;;;;;;;;;24.20;35.40;;;;;;5062709;28;19925;-69
2023/04/21 06:39:56;;;;;;;;;;;24.20;35.50;;;;;;5041531;28;20687;-69
2023/04/21 06:42:21;;;;;;;;;;;24.10;35.70;;;;;;5044840;28;19972;-70
2023/04/21 06:44:46;;;;;;;;;;;24.10;36.20;;;;;;5062521;28;20258;-69
2023/04/21 06:47:12;;;;;;;;;;;24.00;36.50;;;;;;5046758;28;19927;-69
2023/04/21 06:49:38;;;;;;;;;;;24.10;36.70;;;;;;5065234;28;20051;-69
2023/04/21 06:52:03;;;;;;;;;;;24.10;36.60;;;;;;5049476;28;20011;-69
2023/04/21 06:54:29;;;;;;;;;;;24.10;36.70;;;;;;5049849;28;20395;-69
2023/04/21 06:56:55;;;;;;;;;;;24.00;36.80;;;;;;5047314;28;20004;-70
2023/04/21 06:59:21;;;;;;;;;;;24.00;36.90;;;;;;5066391;28;20260;-69
2023/04/21 07:01:51;;;;;;;;;;;24.00;37.00;;;;;;5055919;28;19931;-69
2023/04/21 07:04:17;;;;;;;;;;;24.00;37.00;;;;;;5039532;28;20019;-72
2023/04/21 07:06:42;;;;;;;;;;;24.10;36.90;;;;;;5038207;28;19975;-68
2023/04/21 07:09:08;;;;;;;;;;;24.20;36.90;;;;;;5024332;28;20006;-68
2023/04/21 07:11:33;;;;;;;;;;;24.30;36.80;;;;;;5033866;28;19925;-69
2023/04/21 07:14:01;;;;;;;;;;;24.40;36.70;;;;;;5032963;28;20323;-68
2023/04/21 07:16:27;;;;;;;;;;;24.50;36.50;;;;;;5051936;28;19956;-68
2023/04/21 07:18:53;;;;;;;;;;;24.70;36.30;;;;;;5042313;28;20606;-69
2023/04/21 07:21:18;;;;;;;;;;;24.80;36.10;;;;;;5051697;28;19959;-68
2023/04/21 07:23:44;;;;;;;;;;;24.90;35.90;;;;;;5038189;28;19998;-68
2023/04/21 07:26:09;;;;;;;;;;;24.80;35.80;;;;;;5035503;28;20452;-74
2023/04/21 07:28:36;;;;;;;;;;;24.70;36.00;;;;;;5032163;28;19980;-66
2023/04/21 07:31:01;;;;;;;;;;;24.60;36.10;;;;;;5034876;28;20004;-67
2023/04/21 07:33:27;;;;;;;;;;;24.70;36.20;;;;;;5032389;28;20430;-69
2023/04/21 07:35:52;;;;;;;;;;;24.70;36.10;;;;;;5036695;28;19924;-68
2023/04/21 07:38:18;;;;;;;;;;;24.70;36.10;;;;;;5039518;28;20210;-75
2023/04/21 07:40:43;;;;;;;;;;;24.70;36.20;;;;;;5037028;28;19957;-68
2023/04/21 07:43:09;;;;;;;;;;;24.70;36.10;;;;;;5036233;28;19921;-74
2023/04/21 07:45:34;;;;;;;;;;;24.60;36.20;;;;;;5036019;28;19921;-66
2023/04/21 07:48:00;;;;;;;;;;;24.50;36.40;;;;;;5034958;28;19925;-66
2023/04/21 07:50:25;;;;;;;;;;;24.30;36.30;;;;;;5034158;28;19960;-71
2023/04/21 07:52:51;;;;;;;;;;;24.10;36.80;;;;;;5043508;28;19928;-71
2023/04/21 07:55:16;;;;;;;;;;;23.80;37.00;;;;;;5035998;28;19947;-67
2023/04/21 07:57:42;;;;;;;;;;;23.70;37.50;;;;;;5049749;28;20416;-69
2023/04/21 08:00:08;;;;;;;;;;;23.50;37.70;;;;;;5030806;28;20435;-69
2023/04/21 08:02:33;;;;;;;;;;;23.40;38.10;;;;;;5049781;28;19924;-67
2023/04/21 08:04:59;;;;;;;;;;;23.20;38.20;;;;;;5050469;28;19924;-73
2023/04/21 08:07:24;;;;;;;;;;;23.10;38.50;;;;;;5033073;28;20284;-69
2023/04/21 08:09:50;;;;;;;;;;;22.90;38.60;;;;;;5049911;28;19932;-69
2023/04/21 08:12:15;;;;;;;;;;;22.80;38.80;;;;;;5046084;28;20011;-75
2023/04/21 08:14:41;;;;;;;;;;;22.60;39.00;;;;;;5035542;28;20418;-72
2023/04/21 08:17:07;;;;;;;;;;;22.60;39.30;;;;;;5046842;28;20042;-69
2023/04/21 08:19:32;;;;;;;;;;;22.50;39.40;;;;;;5033306;28;19920;-71
2023/04/21 08:21:58;;;;;;;;;;;22.40;39.60;;;;;;5031162;28;19932;-67
2023/04/21 08:24:23;;;;;;;;;;;22.20;39.70;;;;;;5032444;28;19986;-72
2023/04/21 08:26:49;;;;;;;;;;;22.10;40.70;;;;;;5054213;28;19929;-69
2023/04/21 08:29:15;;;;;;;;;;;22.00;40.10;;;;;;5051334;28;20365;-69
2023/04/21 08:31:40;;;;;;;;;;;21.90;40.20;;;;;;5039913;28;19935;-68
2023/04/21 08:34:06;;;;;;;;;;;21.90;40.60;;;;;;5036711;28;19972;-69
2023/04/21 08:36:31;;;;;;;;;;;21.80;40.60;;;;;;5055955;28;19921;-68
2023/04/21 08:38:57;;;;;;;;;;;21.70;40.90;;;;;;5035937;28;19931;-68
2023/04/21 08:41:23;;;;;;;;;;;21.60;41.10;;;;;;5036953;28;19920;-67
2023/04/21 08:43:48;;;;;;;;;;;21.50;41.20;;;;;;5035921;28;20373;-69
2023/04/21 08:46:14;;;;;;;;;;;21.40;41.40;;;;;;5054213;28;20465;-67
2023/04/21 08:48:40;;;;;;;;;;;21.40;42.40;;;;;;5034845;28;19964;-74
2023/04/21 08:51:08;;;;;;;;;;;21.30;41.70;;;;;;5053080;28;19956;-69
2023/04/21 08:53:34;;;;;;;;;;;21.20;41.90;;;;;;5049690;28;19935;-70
2023/04/21 08:56:00;;;;;;;;;;;21.20;42.00;;;;;;5033059;28;19930;-69
2023/04/21 08:58:25;;;;;;;;;;;21.10;42.20;;;;;;5019845;28;19974;-70
2023/04/21 09:00:51;;;;;;;;;;;21.10;42.40;;;;;;5051614;28;20011;-66
2023/04/21 09:03:24;;;;;;;;;;;21.00;42.60;;;;;;5034680;28;19924;-66
2023/04/21 09:05:57;;;;;;;;;;;21.00;42.80;;;;;;5052713;28;19978;-70
2023/04/21 09:08:24;;;;;;;;;;;21.00;42.90;;;;;;5049320;28;19968;-70
2023/04/21 09:10:51;;;;;;;;;;;20.90;43.00;;;;;;5030587;28;19924;-69
2023/04/21 09:13:17;;;;;;;;;;;20.90;43.20;;;;;;5054176;28;20575;-68
2023/04/21 09:15:45;;;;;;;;;;;20.90;43.30;;;;;;5031447;28;19924;-66
2023/04/21 09:21:04;;;;;;;;;;;20.80;43.60;;;;;;5071994;27;19931;-72
2023/04/21 09:23:30;;;;;;;;;;;20.80;43.90;;;;;;5068017;28;19928;-70
2023/04/21 09:25:55;;;;;;;;;;;20.80;44.00;;;;;;5069374;28;19932;-66
2023/04/21 09:28:21;;;;;;;;;;;20.80;44.10;;;;;;5105090;28;19925;-71
2023/04/21 09:30:53;;;;;;;;;;;20.80;44.10;;;;;;5073986;28;20461;-68
2023/04/21 09:33:19;;;;;;;;;;;20.80;44.20;;;;;;5074517;28;20299;-69
2023/04/21 09:35:45;;;;;;;;;;;20.70;44.20;;;;;;5105345;28;19925;-67
2023/04/21 09:38:11;;;;;;;;;;;20.70;44.20;;;;;;5058269;28;19924;-69
2023/04/21 09:40:37;;;;;;;;;;;20.70;44.60;;;;;;5068514;28;20003;-68
2023/04/21 09:43:03;;;;;;;;;;;20.70;44.50;;;;;;5074158;28;20834;-66
2023/04/21 09:45:29;;;;;;;;;;;20.70;44.80;;;;;;5074780;28;19924;-68
2023/04/21 09:47:56;;;;;;;;;;;20.70;45.00;;;;;;5069835;28;19971;-71
2023/04/21 09:50:21;;;;;;;;;;;20.70;45.50;;;;;;5070202;28;19924;-67
2023/04/21 09:52:49;;;;;;;;;;;20.70;45.60;;;;;;5074904;28;20021;-67
2023/04/21 09:55:15;;;;;;;;;;;20.80;46.00;;;;;;5075164;28;19935;-72
2023/04/21 09:57:41;;;;;;;;;;;20.70;45.80;;;;;;5072799;28;19925;-67
2023/04/21 10:00:08;;;;;;;;;;;20.70;46.10;;;;;;5067673;28;19928;-67
2023/04/21 10:02:35;;;;;;;;;;;20.70;46.50;;;;;;5073437;28;19931;-73
2023/04/21 10:05:03;;;;;;;;;;;20.70;46.00;;;;;;5074036;28;20478;-65
2023/04/21 10:07:29;;;;;;;;;;;20.60;46.40;;;;;;5073449;28;19920;-65
2023/04/21 10:09:55;;;;;;;;;;;20.60;46.40;;;;;;5071651;28;19920;-65
2023/04/21 10:12:21;;;;;;;;;;;20.70;46.50;;;;;;5071282;28;19931;-65
2023/04/21 10:14:51;;;;;;;;;;;20.70;46.70;;;;;;5070891;28;20207;-66
2023/04/21 10:17:17;;;;;;;;;;;20.70;46.50;;;;;;5070714;28;20283;-74
2023/04/21 10:19:47;;;;;;;;;;;20.70;46.20;;;;;;5076248;28;19932;-65
2023/04/21 10:22:12;;;;;;;;;;;20.70;46.30;;;;;;5102733;28;20032;-67
2023/04/21 10:24:38;;;;;;;;;;;20.70;46.00;;;;;;5070400;28;20042;-72
2023/04/21 10:27:04;;;;;;;;;;;20.80;46.00;;;;;;5076441;28;19930;-72
2023/04/21 10:29:32;;;;;;;;;;;20.80;45.90;;;;;;5072869;28;20299;-67
2023/04/21 10:31:57;;;;;;;;;;;20.80;45.70;;;;;;5063101;28;20354;-67
2023/04/21 10:34:38;;;;;;;;;;;20.80;46.60;;;;;;5060329;28;19963;-67
2023/04/21 10:39:50;;;;;;;;;;;20.90;45.50;;;;;;5077651;27;19916;-66
2023/04/21 10:52:58;;;;;;;;;;;20.90;45.50;;;;;;5083623;27;19928;-70
2023/04/21 10:55:25;;;;;;;;;;;20.90;45.50;;;;;;5072802;28;19925;-73
2023/04/21 10:57:51;;;;;;;;;;;20.90;45.50;;;;;;5080640;28;19928;-65
2023/04/21 11:00:18;;;;;;;;;;;20.80;45.50;;;;;;5066591;28;19932;-67
2023/04/21 11:02:51;;;;;;;;;;;20.80;45.80;;;;;;5068086;28;20015;-69
2023/04/21 11:05:17;;;;;;;;;;;20.90;45.90;;;;;;5103665;27;20015;-70
2023/04/21 11:07:42;;;;;;;;;;;20.80;46.10;;;;;;5069806;28;20031;-73
2023/04/21 11:10:10;;;;;;;;;;;20.80;45.90;;;;;;5068550;28;20410;-68
2023/04/21 11:12:38;;;;;;;;;;;20.80;46.00;;;;;;5065343;28;20762;-71
2023/04/21 11:15:06;;;;;;;;;;;20.80;46.10;;;;;;5066346;28;19932;-70
2023/04/21 11:17:32;;;;;;;;;;;20.80;46.20;;;;;;5062484;28;19983;-68
2023/04/21 11:19:57;;;;;;;;;;;20.80;46.30;;;;;;5108148;28;19958;-68
2023/04/21 11:22:24;;;;;;;;;;;20.80;46.60;;;;;;5073542;28;19928;-76
2023/04/21 11:24:52;;;;;;;;;;;20.80;46.60;;;;;;5071048;28;19921;-68
2023/04/21 11:27:18;;;;;;;;;;;20.80;46.50;;;;;;5104704;28;20286;-68
2023/04/21 11:29:44;;;;;;;;;;;20.80;46.70;;;;;;5074470;28;20394;-67
2023/04/21 11:32:10;;;;;;;;;;;20.80;46.80;;;;;;5063289;28;19924;-68
2023/04/21 11:34:37;;;;;;;;;;;20.80;46.70;;;;;;5070238;28;19981;-72
2023/04/21 11:37:02;;;;;;;;;;;20.70;46.70;;;;;;5068586;28;20620;-72
2023/04/21 11:39:28;;;;;;;;;;;20.70;46.70;;;;;;5071422;28;19984;-70
2023/04/21 11:41:53;;;;;;;;;;;20.70;46.80;;;;;;5072165;28;19928;-66
2023/04/21 11:44:39;;;;;;;;;;;20.60;46.90;;;;;;5071919;28;19924;-68
2023/04/21 11:47:12;;;;;;;;;;;20.70;47.10;;;;;;5085077;28;19928;-73
2023/04/21 11:49:43;;;;;;;;;;;20.70;47.20;;;;;;5089179;28;19928;-74
2023/04/21 11:52:08;;;;;;;;;;;20.60;47.40;;;;;;5073720;28;19924;-75
2023/04/21 11:54:34;;;;;;;;;;;20.70;47.40;;;;;;5070667;28;20028;-66
2023/04/21 11:57:01;;;;;;;;;;;20.70;47.70;;;;;;5074155;28;20290;-67
2023/04/21 11:59:28;;;;;;;;;;;20.70;47.80;;;;;;5075931;28;20010;-72
2023/04/21 12:01:54;;;;;;;;;;;20.60;47.90;;;;;;5074705;28;19939;-71
2023/04/21 12:04:21;;;;;;;;;;;20.70;48.20;;;;;;5086363;28;19924;-65
2023/04/21 12:06:55;;;;;;;;;;;20.70;48.30;;;;;;5061683;28;19928;-70
2023/04/21 12:09:21;;;;;;;;;;;20.80;48.50;;;;;;5085745;28;20015;-67
2023/04/21 12:11:50;;;;;;;;;;;20.80;48.50;;;;;;5065894;28;19925;-66
2023/04/21 12:14:18;;;;;;;;;;;20.80;48.50;;;;;;5065039;28;19963;-66
2023/04/21 12:16:43;;;;;;;;;;;20.80;48.50;;;;;;5058846;28;19928;-67
2023/04/21 12:19:09;;;;;;;;;;;20.80;48.40;;;;;;5075950;28;20031;-65
2023/04/21 12:21:36;;;;;;;;;;;20.80;48.40;;;;;;5071455;28;19925;-66
2023/04/21 12:24:03;;;;;;;;;;;20.80;48.30;;;;;;5059201;28;20566;-68
2023/04/21 12:26:29;;;;;;;;;;;20.80;48.50;;;;;;5055737;28;19924;-69
2023/04/21 12:28:55;;;;;;;;;;;20.80;48.30;;;;;;5073446;28;19924;-68
2023/04/21 12:31:20;;;;;;;;;;;20.80;48.30;;;;;;5055032;28;20006;-68
2023/04/21 12:33:46;;;;;;;;;;;20.70;48.30;;;;;;5058059;28;19947;-67
2023/04/21 12:36:11;;;;;;;;;;;20.80;48.30;;;;;;5046927;28;20003;-70
2023/04/21 12:38:37;;;;;;;;;;;20.70;48.30;;;;;;5078987;28;20015;-68
2023/04/21 12:41:02;;;;;;;;;;;20.70;48.20;;;;;;5050114;28;19947;-68
2023/04/21 12:43:28;;;;;;;;;;;20.70;48.30;;;;;;5051827;28;19924;-67
2023/04/21 12:45:54;;;;;;;;;;;20.70;48.30;;;;;;5055926;28;19978;-67
2023/04/21 12:48:23;;;;;;;;;;;20.70;48.30;;;;;;5053067;28;20345;-66
2023/04/21 12:50:48;;;;;;;;;;;20.70;48.30;;;;;;5052815;28;19982;-67
2023/04/21 12:53:13;;;;;;;;;;;20.70;48.30;;;;;;5051529;28;19920;-66
2023/04/21 12:55:39;;;;;;;;;;;20.70;48.40;;;;;;5057814;28;19925;-70
2023/04/21 12:58:05;;;;;;;;;;;20.70;48.30;;;;;;5053499;28;19933;-71
2023/04/21 13:00:32;;;;;;;;;;;20.70;48.40;;;;;;5052523;28;19951;-69
2023/04/21 13:02:57;;;;;;;;;;;20.60;48.30;;;;;;5053898;28;19924;-68
2023/04/21 13:05:23;;;;;;;;;;;20.70;48.30;;;;;;5052227;28;19982;-68
2023/04/21 13:07:48;;;;;;;;;;;20.70;48.20;;;;;;5079964;28;19924;-68
2023/04/21 13:10:14;;;;;;;;;;;20.70;48.30;;;;;;5059058;28;19928;-67
2023/04/21 13:12:40;;;;;;;;;;;20.70;48.30;;;;;;5058096;28;20597;-68
2023/04/21 13:15:06;;;;;;;;;;;20.70;48.20;;;;;;5093987;28;19920;-67
2023/04/21 13:17:31;;;;;;;;;;;20.70;48.30;;;;;;5060108;28;19924;-67
2023/04/21 13:19:57;;;;;;;;;;;20.70;48.30;;;;;;5057511;28;19977;-68
2023/04/21 13:22:22;;;;;;;;;;;20.60;48.20;;;;;;5059305;28;19927;-67
2023/04/21 13:24:48;;;;;;;;;;;20.70;48.30;;;;;;5065104;28;19921;-67
2023/04/21 13:27:13;;;;;;;;;;;20.60;48.40;;;;;;5060497;28;19925;-67
2023/04/21 13:29:38;;;;;;;;;;;20.70;48.20;;;;;;5064093;28;19924;-67
2023/04/21 13:32:06;;;;;;;;;;;20.60;48.10;;;;;;5093498;28;19924;-67
2023/04/21 13:34:32;;;;;;;;;;;20.60;48.10;;;;;;5059498;28;19920;-67
2023/04/21 13:36:58;;;;;;;;;;;20.60;48.00;;;;;;5062273;28;20354;-66
2023/04/21 13:39:23;;;;;;;;;;;20.60;47.90;;;;;;5059690;28;19925;-67
2023/04/21 13:41:49;;;;;;;;;;;20.60;47.90;;;;;;5067299;28;19970;-68
2023/04/21 13:44:14;;;;;;;;;;;20.60;47.90;;;;;;5066692;28;20379;-67
2023/04/21 13:46:40;;;;;;;;;;;20.60;47.80;;;;;;5069699;28;19981;-67
2023/04/21 13:49:06;;;;;;;;;;;20.60;47.70;;;;;;5069304;28;19925;-67
2023/04/21 13:51:31;;;;;;;;;;;20.60;47.60;;;;;;5068705;28;19924;-67
2023/04/21 13:53:57;;;;;;;;;;;20.60;47.60;;;;;;5068424;28;19924;-67
2023/04/21 13:56:22;;;;;;;;;;;20.60;47.50;;;;;;5069635;28;19942;-68
2023/04/21 13:58:48;;;;;;;;;;;20.60;47.40;;;;;;5068715;28;19928;-67
2023/04/21 14:01:14;;;;;;;;;;;20.60;47.40;;;;;;5069821;28;20003;-67
2023/04/21 14:03:40;;;;;;;;;;;20.60;47.40;;;;;;5065596;28;20411;-68
2023/04/21 14:06:05;;;;;;;;;;;20.60;47.30;;;;;;5069346;28;20305;-68
2023/04/21 14:08:31;;;;;;;;;;;20.60;47.30;;;;;;5069632;28;20455;-69
2023/04/21 14:10:56;;;;;;;;;;;20.60;47.20;;;;;;5096300;28;19975;-70
2023/04/21 14:13:22;;;;;;;;;;;20.60;47.20;;;;;;5077719;28;19920;-67
2023/04/21 14:15:48;;;;;;;;;;;20.60;47.20;;;;;;5081251;28;19930;-67
2023/04/21 14:18:14;;;;;;;;;;;20.70;47.30;;;;;;5079515;28;19926;-71
2023/04/21 14:20:39;;;;;;;;;;;20.60;47.20;;;;;;5070287;28;19927;-74
2023/04/21 14:23:05;;;;;;;;;;;20.60;47.10;;;;;;5069577;28;20384;-73
2023/04/21 14:25:30;;;;;;;;;;;20.70;47.20;;;;;;5069176;28;19924;-68
2023/04/21 14:27:56;;;;;;;;;;;20.70;47.10;;;;;;5069776;28;20445;-69